Terminal Aerodrome Forecast
Issued by NWS Blacksburg, VA

Home | Current Version | Previous Version | Text Only | Print | Product List | Glossary On
Versions: 1 2 3 4 5 6 7 8 9 10 11 12 13 14 15 16 17 18 19 20 21 22 23 24 25 26 27 28 29 30 31 32 33 34 35 36 37 38 39 40 41 42 43 44
000
FTUS41 KRNK 171728
TAFLYH
TAF
KLYH 171728Z 1718/1818 19005KT P6SM SCT050
     FM172100 19005KT P6SM VCTS SCT040CB BKN050
     FM180100 18005KT P6SM VCSH SCT040 BKN080
     FM180200 19004KT P6SM BKN080 BKN250
     FM180600 VRB03KT 5SM BR BKN010 BKN040
     FM181200 VRB03KT P6SM FEW020 SCT250
     FM181600 23005KT P6SM VCTS BKN040CB BKN250=

USA.gov is the U.S. government's official web portal to all federal, state and local government web resources and services.